createdAt,value
2022-11-13T00:00:55.538Z,24.47
2022-11-13T00:03:23.086Z,24.37
2022-11-13T00:06:01.874Z,25.93
2022-11-13T00:08:29.016Z,24.63
2022-11-13T00:11:13.126Z,25.77
2022-11-13T00:13:39.864Z,24.43
2022-11-13T00:16:10.899Z,25.83
2022-11-13T00:18:37.956Z,26.30
2022-11-13T00:21:11.223Z,24.83
2022-11-13T00:23:38.146Z,24.60
2022-11-13T00:26:11.416Z,24.50
2022-11-13T00:28:38.279Z,24.20
2022-11-13T00:31:07.325Z,23.07
2022-11-13T00:36:27.231Z,25.17
2022-11-13T00:38:54.581Z,26.10
2022-11-13T00:41:22.336Z,26.43
2022-11-13T00:43:49.128Z,25.23
2022-11-13T00:46:15.949Z,25.57
2022-11-13T00:48:42.745Z,24.53
2022-11-13T00:51:10.629Z,23.80
2022-11-13T00:53:37.386Z,24.70
2022-11-13T00:56:04.575Z,25.33
2022-11-13T00:58:31.771Z,23.97
2022-11-13T01:01:06.159Z,23.63
2022-11-13T01:03:33.289Z,22.77
2022-11-13T01:05:59.978Z,22.57
2022-11-13T01:08:27.489Z,23.13
2022-11-13T01:10:54.557Z,21.97
2022-11-13T01:13:21.419Z,22.67
2022-11-13T01:15:48.183Z,23.13
2022-11-13T01:18:14.994Z,23.40
2022-11-13T01:20:41.769Z,21.70
2022-11-13T01:23:08.745Z,23.33
2022-11-13T01:25:35.842Z,23.93
2022-11-13T01:28:02.554Z,23.67
2022-11-13T01:30:29.271Z,26.47
2022-11-13T01:32:55.931Z,26.70
2022-11-13T01:35:22.717Z,28.03
2022-11-13T01:37:49.498Z,28.03
2022-11-13T01:40:16.480Z,27.97
2022-11-13T01:42:43.210Z,26.17
2022-11-13T01:45:47.804Z,28.33
2022-11-13T01:48:14.992Z,27.47
2022-11-13T01:50:41.789Z,29.40
2022-11-13T01:53:08.945Z,28.07
2022-11-13T01:55:36.090Z,25.77
2022-11-13T01:58:04.936Z,27.17
2022-11-13T02:00:31.825Z,26.70
2022-11-13T02:02:58.573Z,29.67
2022-11-13T02:05:25.492Z,28.70
2022-11-13T02:07:53.415Z,27.50
2022-11-13T02:10:20.190Z,27.13
2022-11-13T02:12:50.930Z,26.50
2022-11-13T02:15:24.216Z,26.10
2022-11-13T02:17:57.060Z,25.20
2022-11-13T02:20:55.865Z,27.30
2022-11-13T02:23:36.536Z,27.03
2022-11-13T02:26:04.667Z,25.93
2022-11-13T02:28:31.712Z,27.07
2022-11-13T02:31:09.689Z,27.63
2022-11-13T02:33:36.650Z,27.50
2022-11-13T02:36:06.076Z,27.63
2022-11-13T02:38:35.340Z,27.10
2022-11-13T02:41:02.228Z,24.00
2022-11-13T02:43:28.961Z,25.50
2022-11-13T02:45:55.745Z,25.03
2022-11-13T02:48:25.318Z,23.90
2022-11-13T02:50:52.414Z,24.37
2022-11-13T02:53:19.202Z,25.63
2022-11-13T02:55:45.989Z,25.00
2022-11-13T02:58:12.690Z,23.77
2022-11-13T03:00:39.528Z,24.30
2022-11-13T03:03:06.519Z,25.83
2022-11-13T03:05:35.815Z,27.40
2022-11-13T03:08:02.507Z,26.40
2022-11-13T03:10:29.208Z,25.13
2022-11-13T03:12:55.924Z,23.93
2022-11-13T03:15:23.034Z,24.57
2022-11-13T03:17:51.963Z,24.37
2022-11-13T03:20:18.836Z,26.80
2022-11-13T03:22:45.610Z,24.47
2022-11-13T03:25:20.463Z,23.93
2022-11-13T03:27:47.121Z,23.63
2022-11-13T03:30:14.125Z,22.87
2022-11-13T03:32:40.927Z,24.53
2022-11-13T03:35:08.894Z,24.40
2022-11-13T03:37:35.706Z,23.67
2022-11-13T03:40:02.484Z,24.60
2022-11-13T03:42:29.273Z,24.07
2022-11-13T03:44:55.970Z,24.43
2022-11-13T03:47:23.209Z,22.60
2022-11-13T03:49:49.902Z,24.43
2022-11-13T03:52:21.749Z,23.17
2022-11-13T03:54:48.574Z,22.53
2022-11-13T03:57:15.463Z,22.70
2022-11-13T03:59:42.167Z,22.07
2022-11-13T04:02:09.098Z,22.80
2022-11-13T04:04:35.867Z,22.80
2022-11-13T04:07:02.968Z,22.50
2022-11-13T04:09:29.788Z,23.97
2022-11-13T04:11:56.577Z,23.33
2022-11-13T04:14:23.278Z,22.73
2022-11-13T04:16:49.924Z,23.17
2022-11-13T04:19:16.640Z,23.30
2022-11-13T04:21:43.386Z,22.70
2022-11-13T04:24:10.064Z,23.90
2022-11-13T04:26:36.795Z,22.80
2022-11-13T04:29:03.535Z,24.80
2022-11-13T04:31:30.253Z,29.37
2022-11-13T04:33:56.980Z,33.13
2022-11-13T04:36:23.754Z,37.00
2022-11-13T04:38:50.571Z,40.10
2022-11-13T04:41:36.031Z,37.70
2022-11-13T04:44:02.930Z,38.10
2022-11-13T04:46:29.672Z,37.57
2022-11-13T04:48:56.347Z,37.00
2022-11-13T04:51:23.238Z,34.87
2022-11-13T04:53:50.051Z,32.93
2022-11-13T04:56:16.904Z,30.80
2022-11-13T04:58:43.627Z,31.20
2022-11-13T05:01:10.322Z,32.03
2022-11-13T05:03:37.746Z,30.37
2022-11-13T05:06:06.401Z,30.40
2022-11-13T05:08:33.612Z,28.93
2022-11-13T05:11:01.475Z,29.80
2022-11-13T05:13:31.955Z,27.43
2022-11-13T05:16:07.308Z,28.40
2022-11-13T05:18:35.628Z,28.37
2022-11-13T05:21:02.630Z,27.73
2022-11-13T05:23:29.371Z,26.93
2022-11-13T05:26:08.494Z,28.37
2022-11-13T05:28:35.573Z,27.30
2022-11-13T05:31:08.324Z,27.77
2022-11-13T05:33:36.145Z,27.77
2022-11-13T05:36:05.221Z,29.23
2022-11-13T05:38:33.237Z,28.17
2022-11-13T05:41:10.159Z,29.07
2022-11-13T05:43:38.067Z,26.90
2022-11-13T05:46:12.991Z,28.93
2022-11-13T05:48:40.861Z,27.43
2022-11-13T05:51:10.735Z,27.27
2022-11-13T05:53:37.742Z,27.77
2022-11-13T05:56:16.188Z,25.80
2022-11-13T05:58:43.752Z,27.97
2022-11-13T06:01:20.511Z,26.03
2022-11-13T06:03:47.993Z,27.37
2022-11-13T06:06:17.684Z,27.20
2022-11-13T06:08:46.494Z,26.70
2022-11-13T06:11:19.573Z,27.07
2022-11-13T06:13:47.366Z,25.53
2022-11-13T06:16:17.978Z,26.87
2022-11-13T06:18:45.566Z,26.30
2022-11-13T06:21:15.731Z,25.87
2022-11-13T06:23:42.631Z,25.00
2022-11-13T06:26:22.079Z,26.00
2022-11-13T06:28:48.933Z,25.57
2022-11-13T06:31:41.841Z,25.67
2022-11-13T06:34:08.663Z,26.37
2022-11-13T06:36:37.125Z,26.07
2022-11-13T06:39:09.356Z,27.13
2022-11-13T06:41:37.671Z,26.30
2022-11-13T06:44:04.536Z,25.93
2022-11-13T06:46:31.278Z,25.83
2022-11-13T06:48:58.286Z,25.17
2022-11-13T06:51:27.562Z,26.00
2022-11-13T06:53:54.744Z,24.67
2022-11-13T06:56:24.056Z,27.33
2022-11-13T06:58:50.876Z,25.97
2022-11-13T07:01:22.910Z,26.50
2022-11-13T07:03:50.826Z,24.00
2022-11-13T07:06:23.085Z,25.10
2022-11-13T07:08:50.037Z,24.60
2022-11-13T07:11:19.276Z,23.43
2022-11-13T07:13:46.285Z,24.50
2022-11-13T07:16:17.361Z,25.37
2022-11-13T07:18:52.286Z,25.00
2022-11-13T07:21:19.867Z,26.17
2022-11-13T07:23:48.897Z,25.00
2022-11-13T07:26:15.803Z,25.77
2022-11-13T07:28:42.703Z,27.63
2022-11-13T07:31:11.883Z,28.50
2022-11-13T07:33:38.569Z,31.23
2022-11-13T07:36:05.815Z,34.33
2022-11-13T07:38:32.550Z,33.00
2022-11-13T07:40:59.790Z,35.47
2022-11-13T07:43:26.934Z,34.13
2022-11-13T07:45:55.487Z,38.30
2022-11-13T07:48:22.819Z,39.20
2022-11-13T07:50:50.447Z,35.30
2022-11-13T07:53:20.958Z,35.97
2022-11-13T07:55:48.065Z,34.23
2022-11-13T07:58:14.873Z,32.03
2022-11-13T08:00:41.711Z,34.67
2022-11-13T08:03:13.569Z,35.03
2022-11-13T08:05:41.018Z,33.43
2022-11-13T08:08:08.489Z,35.40
2022-11-13T08:10:37.877Z,33.70
2022-11-13T08:13:07.482Z,33.43
2022-11-13T08:15:35.165Z,34.50
2022-11-13T08:18:03.302Z,33.27
2022-11-13T08:20:31.262Z,32.73
2022-11-13T08:23:00.124Z,31.73
2022-11-13T08:25:27.631Z,32.40
2022-11-13T08:27:55.216Z,32.57
2022-11-13T08:30:23.068Z,31.13
2022-11-13T08:32:49.762Z,31.63
2022-11-13T08:35:19.434Z,32.70
2022-11-13T08:37:47.003Z,31.60
2022-11-13T08:40:14.067Z,32.33
2022-11-13T08:42:40.810Z,33.67
2022-11-13T08:45:08.830Z,32.10
2022-11-13T08:47:36.129Z,35.17
2022-11-13T08:50:04.150Z,32.27
2022-11-13T08:52:30.842Z,33.50
2022-11-13T08:54:57.646Z,36.33
2022-11-13T08:57:24.372Z,35.90
2022-11-13T08:59:51.159Z,38.17
2022-11-13T09:02:17.834Z,38.13
2022-11-13T09:04:44.656Z,43.07
2022-11-13T09:07:11.680Z,43.10
2022-11-13T09:09:38.536Z,43.67
2022-11-13T09:12:05.846Z,42.13
2022-11-13T09:14:32.608Z,42.17
2022-11-13T09:16:59.394Z,48.73
2022-11-13T09:19:29.301Z,48.43
2022-11-13T09:21:56.163Z,48.90
2022-11-13T09:24:22.964Z,47.13
2022-11-13T09:26:49.837Z,46.13
2022-11-13T09:29:16.744Z,46.80
2022-11-13T09:31:43.458Z,46.17
2022-11-13T09:34:10.217Z,46.87
2022-11-13T09:36:37.240Z,43.70
2022-11-13T09:39:06.877Z,45.17
2022-11-13T09:42:05.171Z,43.93
2022-11-13T09:44:57.469Z,40.77
2022-11-13T09:47:38.563Z,39.13
2022-11-13T09:50:27.296Z,37.77
2022-11-13T09:52:55.193Z,37.07
2022-11-13T09:55:32.641Z,35.97
2022-11-13T09:58:18.891Z,36.53
2022-11-13T10:00:46.295Z,37.33
2022-11-13T10:03:59.933Z,36.50
2022-11-13T10:06:39.767Z,35.33
2022-11-13T10:09:13.226Z,35.80
2022-11-13T10:11:46.345Z,34.23
2022-11-13T10:14:50.482Z,34.90
2022-11-13T10:17:28.434Z,34.20
2022-11-13T10:20:16.042Z,33.63
2022-11-13T10:23:06.838Z,31.73
2022-11-13T10:25:36.938Z,32.37
2022-11-13T10:28:48.269Z,31.77
2022-11-13T10:31:03.973Z,28.77
2022-11-13T10:33:30.897Z,28.40
2022-11-13T10:36:31.977Z,28.97
2022-11-13T10:39:10.212Z,27.73
2022-11-13T10:41:51.951Z,27.73
2022-11-13T10:44:25.078Z,27.07
2022-11-13T10:46:52.334Z,25.67
2022-11-13T10:49:30.786Z,24.10
2022-11-13T10:51:59.317Z,26.30
2022-11-13T10:54:29.184Z,24.57
2022-11-13T10:57:05.057Z,24.80
2022-11-13T10:59:43.175Z,23.10
2022-11-13T11:02:19.873Z,22.90
2022-11-13T11:04:49.947Z,22.57
2022-11-13T11:07:22.578Z,22.17
2022-11-13T11:09:51.408Z,21.90
2022-11-13T11:12:27.157Z,22.37
2022-11-13T11:15:01.137Z,22.10
2022-11-13T11:17:50.679Z,23.00
2022-11-13T11:20:57.531Z,21.63
2022-11-13T11:23:53.254Z,20.30
2022-11-13T11:26:35.613Z,20.33
2022-11-13T11:29:38.354Z,21.20
2022-11-13T11:32:31.220Z,21.53
2022-11-13T11:35:07.856Z,19.90
2022-11-13T11:37:41.133Z,18.17
2022-11-13T11:40:27.979Z,18.53
2022-11-13T11:43:05.003Z,19.53
2022-11-13T11:45:42.007Z,18.80
2022-11-13T11:48:14.991Z,18.47
2022-11-13T11:51:03.080Z,19.17
2022-11-13T11:54:02.639Z,18.67
2022-11-13T11:56:46.810Z,17.33
2022-11-13T11:59:39.656Z,17.10
2022-11-13T12:02:06.337Z,15.80
2022-11-13T12:05:04.150Z,17.07
2022-11-13T12:07:41.913Z,16.50
2022-11-13T12:10:36.598Z,16.47
2022-11-13T12:13:18.514Z,17.43
2022-11-13T12:16:01.155Z,18.03
2022-11-13T12:18:52.765Z,15.80
2022-11-13T12:21:22.555Z,15.70
2022-11-13T12:24:08.083Z,16.23
2022-11-13T12:27:03.806Z,17.80
2022-11-13T12:29:40.759Z,17.03
2022-11-13T12:32:19.407Z,16.77
2022-11-13T12:34:53.727Z,16.50
2022-11-13T12:37:34.907Z,16.87
2022-11-13T12:40:08.044Z,15.67
2022-11-13T12:42:44.626Z,15.97
2022-11-13T12:45:24.888Z,15.73
2022-11-13T12:47:52.228Z,14.80
2022-11-13T12:50:32.721Z,15.50
2022-11-13T12:53:07.375Z,14.90
2022-11-13T12:55:38.715Z,13.43
2022-11-13T12:58:22.585Z,14.03
2022-11-13T13:01:12.683Z,12.83
2022-11-13T13:03:56.775Z,12.90
2022-11-13T13:06:57.567Z,12.90
2022-11-13T13:09:31.710Z,13.40
2022-11-13T13:12:15.063Z,13.00
2022-11-13T13:15:08.650Z,13.43
2022-11-13T13:17:38.542Z,14.03
2022-11-13T13:20:27.539Z,13.57
2022-11-13T13:22:59.451Z,14.47
2022-11-13T13:25:29.561Z,14.50
2022-11-13T13:28:08.425Z,14.33
2022-11-13T13:31:02.887Z,15.40
2022-11-13T13:33:47.803Z,14.87
2022-11-13T13:36:58.393Z,15.60
2022-11-13T13:39:49.595Z,14.93
2022-11-13T13:42:36.732Z,15.03
2022-11-13T13:45:25.621Z,15.93
2022-11-13T13:47:54.936Z,16.10
2022-11-13T13:50:29.478Z,14.73
2022-11-13T13:52:58.676Z,14.63
2022-11-13T13:55:33.716Z,14.87
2022-11-13T13:58:05.748Z,14.20
2022-11-13T14:00:33.084Z,15.33
2022-11-13T14:02:59.783Z,14.17
2022-11-13T14:05:33.004Z,13.83
2022-11-13T14:08:03.822Z,13.53
2022-11-13T14:10:30.492Z,14.10
2022-11-13T14:12:57.390Z,12.87
2022-11-13T14:15:27.556Z,12.77
2022-11-13T14:18:17.925Z,13.07
2022-11-13T14:20:54.142Z,13.13
2022-11-13T14:23:37.851Z,14.03
2022-11-13T14:26:05.919Z,12.97
2022-11-13T14:28:53.166Z,14.33
2022-11-13T14:31:25.277Z,14.10
2022-11-13T14:33:52.159Z,14.87
2022-11-13T14:36:29.820Z,14.10
2022-11-13T14:38:59.513Z,15.10
2022-11-13T14:41:40.043Z,14.60
2022-11-13T14:44:07.139Z,15.60
2022-11-13T14:46:37.780Z,14.90
2022-11-13T14:49:12.460Z,15.23
2022-11-13T14:51:42.683Z,15.73
2022-11-13T14:55:14.708Z,16.10
2022-11-13T14:57:25.567Z,15.53
2022-11-13T14:59:55.104Z,14.90
2022-11-13T15:02:21.970Z,15.87
2022-11-13T15:04:48.673Z,16.40
2022-11-13T15:07:30.786Z,15.60
2022-11-13T15:09:58.769Z,15.63
2022-11-13T15:12:25.782Z,16.17
2022-11-13T15:14:52.528Z,15.87
2022-11-13T15:17:22.155Z,15.13
2022-11-13T15:19:52.808Z,15.57
2022-11-13T15:22:27.160Z,15.90
2022-11-13T15:24:54.961Z,14.67
2022-11-13T15:27:21.641Z,16.27
2022-11-13T15:29:48.371Z,15.43
2022-11-13T15:32:16.080Z,16.27
2022-11-13T15:34:42.884Z,14.93
2022-11-13T15:37:14.642Z,15.87
2022-11-13T15:39:41.410Z,15.70
2022-11-13T15:42:14.240Z,15.03
2022-11-13T15:44:41.002Z,15.30
2022-11-13T15:47:31.604Z,14.43
2022-11-13T15:50:15.631Z,15.43
2022-11-13T15:52:49.072Z,14.97
2022-11-13T15:55:28.340Z,16.40
2022-11-13T15:57:55.996Z,14.80
2022-11-13T16:00:27.915Z,16.30
2022-11-13T16:02:56.620Z,15.73
2022-11-13T16:05:29.462Z,16.80
2022-11-13T16:07:57.042Z,16.90
2022-11-13T16:10:26.830Z,15.73
2022-11-13T16:12:54.373Z,19.17
2022-11-13T16:15:21.657Z,18.53
2022-11-13T16:17:52.195Z,17.60
2022-11-13T16:20:19.277Z,18.80
2022-11-13T16:22:46.251Z,18.47
2022-11-13T16:25:17.566Z,17.33
2022-11-13T16:27:45.060Z,16.40
2022-11-13T16:30:22.431Z,16.80
2022-11-13T16:32:49.372Z,17.50
2022-11-13T16:35:17.660Z,17.43
2022-11-13T16:37:44.628Z,16.43
2022-11-13T16:40:25.984Z,17.77
2022-11-13T16:42:53.767Z,18.53
2022-11-13T16:45:21.958Z,17.33
2022-11-13T16:47:50.760Z,17.43
2022-11-13T16:50:24.200Z,17.67
2022-11-13T16:52:51.130Z,17.33
2022-11-13T16:55:18.009Z,16.87
2022-11-13T16:57:44.901Z,17.20
2022-11-13T17:00:19.634Z,17.97
2022-11-13T17:02:49.791Z,18.97
2022-11-13T17:05:17.431Z,20.10
2022-11-13T17:07:44.403Z,20.80
2022-11-13T17:13:00.922Z,20.37
2022-11-13T17:15:28.098Z,20.13
2022-11-13T17:17:58.238Z,21.08
2022-11-13T17:20:25.343Z,19.97
2022-11-13T17:22:52.174Z,20.07
2022-11-13T17:25:20.571Z,19.90
2022-11-13T17:27:47.349Z,19.60
2022-11-13T17:30:14.750Z,21.23
2022-11-13T17:32:41.889Z,19.90
2022-11-13T17:35:11.683Z,19.90
2022-11-13T17:37:38.630Z,20.17
2022-11-13T17:40:05.949Z,19.83
2022-11-13T17:42:32.836Z,18.63
2022-11-13T17:44:59.628Z,19.17
2022-11-13T17:47:26.497Z,20.30
2022-11-13T17:49:53.148Z,20.63
2022-11-13T17:52:19.971Z,21.23
2022-11-13T17:54:46.824Z,19.53
2022-11-13T17:57:14.516Z,20.23
2022-11-13T17:59:41.463Z,21.43
2022-11-13T18:02:11.418Z,21.67
2022-11-13T18:04:38.205Z,20.90
2022-11-13T18:07:05.464Z,22.47
2022-11-13T18:09:32.393Z,23.83
2022-11-13T18:11:59.118Z,25.07
2022-11-13T18:14:25.887Z,28.57
2022-11-13T18:16:52.615Z,33.60
2022-11-13T18:19:19.453Z,27.23
2022-11-13T18:21:46.220Z,28.10
2022-11-13T18:24:15.571Z,28.70
2022-11-13T18:26:42.599Z,25.40
2022-11-13T18:29:09.726Z,26.70
2022-11-13T18:31:36.856Z,28.00
2022-11-13T18:34:05.745Z,30.77
2022-11-13T18:36:34.628Z,30.77
2022-11-13T18:39:03.490Z,27.43
2022-11-13T18:41:32.517Z,32.93
2022-11-13T18:43:59.427Z,31.63
2022-11-13T18:46:26.283Z,27.60
2022-11-13T18:48:54.773Z,27.57
2022-11-13T18:51:27.702Z,31.43
2022-11-13T18:53:55.192Z,32.63
2022-11-13T18:56:24.519Z,31.67
2022-11-13T18:58:53.578Z,28.33
2022-11-13T19:01:26.457Z,29.97
2022-11-13T19:04:20.974Z,36.57
2022-11-13T19:06:42.140Z,38.43
2022-11-13T19:09:13.165Z,36.60
2022-11-13T19:11:40.539Z,32.57
2022-11-13T19:14:08.452Z,32.60
2022-11-13T19:16:39.419Z,34.03
2022-11-13T19:19:16.756Z,34.97
2022-11-13T19:21:43.821Z,36.37
2022-11-13T19:24:11.855Z,38.10
2022-11-13T19:26:39.097Z,38.00
2022-11-13T19:29:05.869Z,37.40
2022-11-13T19:31:33.482Z,38.33
2022-11-13T19:34:02.700Z,38.07
2022-11-13T19:36:30.982Z,34.43
2022-11-13T19:38:58.784Z,36.67
2022-11-13T19:41:27.382Z,39.13
2022-11-13T19:43:54.689Z,37.30
2022-11-13T19:46:21.660Z,38.50
2022-11-13T19:48:49.402Z,39.27
2022-11-13T19:51:22.058Z,35.97
2022-11-13T19:53:56.101Z,40.17
2022-11-13T19:56:24.317Z,38.03
2022-11-13T19:58:52.480Z,37.50
2022-11-13T20:01:22.097Z,38.97
2022-11-13T20:03:53.968Z,39.53
2022-11-13T20:06:22.154Z,39.50
2022-11-13T20:08:49.062Z,38.27
2022-11-13T20:11:16.409Z,38.40
2022-11-13T20:13:44.076Z,37.33
2022-11-13T20:16:14.294Z,38.10
2022-11-13T20:18:42.480Z,37.60
2022-11-13T20:21:09.599Z,37.77
2022-11-13T20:23:36.822Z,36.07
2022-11-13T20:26:06.211Z,38.00
2022-11-13T20:28:33.182Z,35.43
2022-11-13T20:31:10.797Z,34.50
2022-11-13T20:33:37.657Z,34.70
2022-11-13T20:36:04.796Z,35.77
2022-11-13T20:38:31.741Z,34.27
2022-11-13T20:40:58.642Z,32.37
2022-11-13T20:43:25.306Z,30.40
2022-11-13T20:46:01.737Z,31.40
2022-11-13T20:48:28.985Z,31.40
2022-11-13T20:50:55.889Z,30.80
2022-11-13T20:53:23.021Z,30.87
2022-11-13T20:55:49.674Z,33.43
2022-11-13T20:58:16.358Z,32.57
2022-11-13T21:00:43.200Z,31.10
2022-11-13T21:03:09.925Z,30.57
2022-11-13T21:05:36.725Z,28.10
2022-11-13T21:08:03.587Z,27.40
2022-11-13T21:10:30.299Z,27.57
2022-11-13T21:12:57.000Z,27.67
2022-11-13T21:15:23.782Z,26.43
2022-11-13T21:17:50.443Z,27.93
2022-11-13T21:20:17.328Z,29.10
2022-11-13T21:22:44.055Z,29.20
2022-11-13T21:25:13.237Z,31.23
2022-11-13T21:27:39.977Z,32.97
2022-11-13T21:30:07.382Z,36.47
2022-11-13T21:32:34.173Z,36.63
2022-11-13T21:35:00.912Z,39.70
2022-11-13T21:37:28.125Z,41.97
2022-11-13T21:39:54.910Z,41.63
2022-11-13T21:42:21.697Z,42.13
2022-11-13T21:44:48.683Z,41.47
2022-11-13T21:47:15.978Z,40.33
2022-11-13T21:49:43.297Z,40.57
2022-11-13T21:52:10.024Z,38.03
2022-11-13T21:54:36.739Z,38.70
2022-11-13T21:57:03.639Z,36.97
2022-11-13T21:59:31.605Z,38.60
2022-11-13T22:01:59.203Z,38.20
2022-11-13T22:04:26.285Z,38.47
2022-11-13T22:06:53.458Z,36.90
2022-11-13T22:09:25.283Z,38.67
2022-11-13T22:11:52.724Z,39.90
2022-11-13T22:14:19.544Z,43.60
2022-11-13T22:16:47.528Z,43.13
2022-11-13T22:19:25.260Z,41.97
2022-11-13T22:21:54.066Z,40.60
2022-11-13T22:24:20.773Z,40.60
2022-11-13T22:26:50.512Z,42.23
2022-11-13T22:29:17.360Z,44.80
2022-11-13T22:31:44.969Z,46.77
2022-11-13T22:34:11.798Z,46.30
2022-11-13T22:36:38.595Z,48.00
2022-11-13T22:39:06.139Z,50.03
2022-11-13T22:41:34.991Z,47.93
2022-11-13T22:44:07.523Z,44.00
2022-11-13T22:46:35.868Z,43.80
2022-11-13T22:49:04.985Z,48.57
2022-11-13T22:51:35.149Z,45.60
2022-11-13T22:54:04.138Z,44.67
2022-11-13T22:56:32.887Z,45.87
2022-11-13T22:59:01.480Z,43.93
2022-11-13T23:01:33.487Z,46.17
2022-11-13T23:04:05.025Z,44.07
2022-11-13T23:06:33.959Z,42.30
2022-11-13T23:09:01.690Z,41.97
2022-11-13T23:11:39.410Z,42.23
2022-11-13T23:14:09.915Z,44.20
2022-11-13T23:16:36.710Z,42.03
2022-11-13T23:19:03.699Z,40.60
2022-11-13T23:21:30.594Z,41.50
2022-11-13T23:23:58.023Z,41.60
2022-11-13T23:26:26.122Z,39.60
2022-11-13T23:28:53.047Z,39.77
2022-11-13T23:31:20.757Z,40.87
2022-11-13T23:33:47.857Z,41.30
2022-11-13T23:36:18.071Z,41.33
2022-11-13T23:38:45.486Z,40.53
2022-11-13T23:41:12.628Z,38.93
2022-11-13T23:44:08.105Z,42.10
2022-11-13T23:46:28.863Z,42.20
2022-11-13T23:48:55.681Z,40.73
2022-11-13T23:51:22.505Z,39.43
2022-11-13T23:53:49.263Z,43.27
2022-11-13T23:56:15.981Z,44.17
2022-11-13T23:58:42.669Z,44.87
